EZY39PC EGPH-EGGW
Flight info
| Callsign | EZY39PC |
|---|---|
| Flight time | 1h 2m |
| Altitude | 33000 |
| Route | GOSAM P600 FENIK L612 NAVSO DCT AKOMU DCT VAMEB UL612 LISTO |
| Aircraft | A20N/M-SDE2E3FGHIRWXY/LB1 |
Departure
| Time | 2026-04-25 09:37 |
|---|---|
| Airport | Edinburgh Airport (EGPH) |
Arrival
| Time | 2026-04-25 10:39 |
|---|---|
| Airport | London Luton Airport (EGGW) |
| Time | Latitude | Longitude | Altitude | Speed | Heading |
|---|---|---|---|---|---|
| 2026-04-25 09:03 | 55.94703 | -3.36604 | 107 ft | 0 kts | 89° |
| 2026-04-25 09:28 | 55.94703 | -3.36605 | 107 ft | 1 kts | 89° |
| 2026-04-25 09:28 | 55.94702 | -3.36649 | 107 ft | 4 kts | 86° |
| 2026-04-25 09:28 | 55.94699 | -3.36697 | 107 ft | 4 kts | 73° |
| 2026-04-25 09:29 | 55.94688 | -3.36734 | 106 ft | 4 kts | 19° |
| 2026-04-25 09:29 | 55.94682 | -3.36738 | 106 ft | 0 kts | 359° |
| 2026-04-25 09:32 | 55.94685 | -3.36738 | 106 ft | 3 kts | 359° |
| 2026-04-25 09:32 | 55.94734 | -3.36740 | 107 ft | 10 kts | 355° |
| 2026-04-25 09:33 | 55.94815 | -3.36780 | 107 ft | 14 kts | 358° |
| 2026-04-25 09:33 | 55.94890 | -3.36797 | 105 ft | 12 kts | 331° |
| 2026-04-25 09:33 | 55.94916 | -3.36929 | 107 ft | 14 kts | 242° |
| 2026-04-25 09:33 | 55.94857 | -3.37099 | 107 ft | 18 kts | 239° |
| 2026-04-25 09:34 | 55.94786 | -3.37309 | 106 ft | 21 kts | 239° |
| 2026-04-25 09:34 | 55.94708 | -3.37540 | 107 ft | 23 kts | 238° |
| 2026-04-25 09:34 | 55.94622 | -3.37796 | 107 ft | 21 kts | 238° |
| 2026-04-25 09:34 | 55.94565 | -3.37963 | 107 ft | 16 kts | 239° |
| 2026-04-25 09:35 | 55.94500 | -3.38155 | 105 ft | 20 kts | 239° |
| 2026-04-25 09:35 | 55.94422 | -3.38386 | 107 ft | 23 kts | 239° |
| 2026-04-25 09:35 | 55.94333 | -3.38647 | 107 ft | 26 kts | 238° |
| 2026-04-25 09:35 | 55.94279 | -3.38827 | 107 ft | 15 kts | 263° |
| 2026-04-25 09:36 | 55.94312 | -3.38896 | 107 ft | 1 kts | 341° |
| 2026-04-25 09:36 | 55.94372 | -3.38954 | 108 ft | 14 kts | 329° |
| 2026-04-25 09:36 | 55.94437 | -3.38902 | 108 ft | 12 kts | 52° |
| 2026-04-25 09:36 | 55.94515 | -3.38668 | 107 ft | 46 kts | 58° |
| 2026-04-25 09:37 | 55.94799 | -3.37841 | 110 ft | 107 kts | 58° |
| 2026-04-25 09:37 | 55.95264 | -3.36474 | 259 ft | 137 kts | 59° |
| 2026-04-25 09:37 | 55.95777 | -3.35024 | 805 ft | 141 kts | 58° |
| 2026-04-25 09:37 | 55.96407 | -3.33640 | 1428 ft | 145 kts | 45° |
| 2026-04-25 09:38 | 55.97171 | -3.32427 | 2002 ft | 152 kts | 44° |
| 2026-04-25 09:38 | 55.98017 | -3.31157 | 2463 ft | 167 kts | 41° |
| 2026-04-25 09:38 | 55.98961 | -3.29765 | 2949 ft | 185 kts | 40° |
| 2026-04-25 09:38 | 56.00098 | -3.28473 | 3427 ft | 205 kts | 15° |
| 2026-04-25 09:39 | 56.01547 | -3.28535 | 3979 ft | 221 kts | 339° |
| 2026-04-25 09:39 | 56.02816 | -3.30241 | 4559 ft | 241 kts | 304° |
| 2026-04-25 09:39 | 56.03375 | -3.33144 | 5265 ft | 260 kts | 273° |
| 2026-04-25 09:40 | 56.02589 | -3.39583 | 7383 ft | 265 kts | 254° |
| 2026-04-25 09:40 | 56.02025 | -3.42781 | 8386 ft | 272 kts | 254° |
| 2026-04-25 09:40 | 56.01199 | -3.45844 | 9371 ft | 279 kts | 233° |
| 2026-04-25 09:40 | 55.99673 | -3.48047 | 10348 ft | 290 kts | 207° |
| 2026-04-25 09:41 | 55.97661 | -3.48995 | 10902 ft | 314 kts | 184° |
| 2026-04-25 09:41 | 55.95406 | -3.48521 | 11268 ft | 341 kts | 167° |
| 2026-04-25 09:41 | 55.93072 | -3.47308 | 11888 ft | 353 kts | 163° |
| 2026-04-25 09:41 | 55.90706 | -3.46062 | 12808 ft | 357 kts | 165° |
| 2026-04-25 09:42 | 55.88283 | -3.44946 | 13708 ft | 361 kts | 167° |
| 2026-04-25 09:42 | 55.85812 | -3.43948 | 14537 ft | 366 kts | 168° |
| 2026-04-25 09:42 | 55.83336 | -3.43031 | 15368 ft | 368 kts | 169° |
| 2026-04-25 09:42 | 55.80785 | -3.42121 | 16198 ft | 371 kts | 169° |
| 2026-04-25 09:43 | 55.78268 | -3.41234 | 16997 ft | 375 kts | 170° |
| 2026-04-25 09:43 | 55.75702 | -3.40332 | 17783 ft | 378 kts | 170° |
| 2026-04-25 09:43 | 55.73107 | -3.39419 | 18578 ft | 381 kts | 170° |
| 2026-04-25 09:43 | 55.70495 | -3.38499 | 19244 ft | 385 kts | 170° |
| 2026-04-25 09:44 | 55.67852 | -3.37568 | 19896 ft | 388 kts | 170° |
| 2026-04-25 09:44 | 55.65184 | -3.36628 | 20551 ft | 392 kts | 169° |
| 2026-04-25 09:44 | 55.62489 | -3.35681 | 21192 ft | 396 kts | 169° |
| 2026-04-25 09:44 | 55.59817 | -3.34742 | 21840 ft | 399 kts | 169° |
| 2026-04-25 09:45 | 55.57057 | -3.33773 | 22478 ft | 403 kts | 169° |
| 2026-04-25 09:45 | 55.54296 | -3.32806 | 23119 ft | 407 kts | 169° |
| 2026-04-25 09:45 | 55.51526 | -3.31837 | 23751 ft | 411 kts | 169° |
| 2026-04-25 09:45 | 55.48702 | -3.30851 | 24273 ft | 414 kts | 169° |
| 2026-04-25 09:46 | 55.45872 | -3.29864 | 24848 ft | 416 kts | 169° |
| 2026-04-25 09:46 | 55.43020 | -3.28870 | 25386 ft | 418 kts | 169° |
| 2026-04-25 09:46 | 55.40157 | -3.27872 | 25906 ft | 421 kts | 169° |
| 2026-04-25 09:46 | 55.37270 | -3.26868 | 26410 ft | 424 kts | 169° |
| 2026-04-25 09:47 | 55.35310 | -3.26188 | 26744 ft | 425 kts | 169° |
| 2026-04-25 09:47 | 55.32396 | -3.25177 | 27249 ft | 428 kts | 170° |
| 2026-04-25 09:47 | 55.29498 | -3.24174 | 27708 ft | 431 kts | 170° |
| 2026-04-25 09:47 | 55.26549 | -3.23154 | 28191 ft | 433 kts | 170° |
| 2026-04-25 09:48 | 55.23643 | -3.22150 | 28638 ft | 435 kts | 170° |
| 2026-04-25 09:48 | 55.20662 | -3.21122 | 29101 ft | 438 kts | 170° |
| 2026-04-25 09:48 | 55.17615 | -3.20074 | 29534 ft | 440 kts | 170° |
| 2026-04-25 09:48 | 55.14668 | -3.19061 | 29947 ft | 442 kts | 170° |
| 2026-04-25 09:49 | 55.11639 | -3.18022 | 30363 ft | 444 kts | 170° |
| 2026-04-25 09:49 | 55.08792 | -3.17046 | 30720 ft | 446 kts | 170° |
| 2026-04-25 09:49 | 55.05778 | -3.16014 | 31104 ft | 447 kts | 170° |
| 2026-04-25 09:49 | 55.02684 | -3.14958 | 31518 ft | 448 kts | 170° |
| 2026-04-25 09:50 | 54.99623 | -3.13914 | 32028 ft | 446 kts | 170° |
| 2026-04-25 09:50 | 54.96613 | -3.12889 | 32542 ft | 444 kts | 170° |
| 2026-04-25 09:50 | 54.93590 | -3.11861 | 33026 ft | 442 kts | 170° |
| 2026-04-25 09:50 | 54.90478 | -3.10804 | 33198 ft | 439 kts | 170° |
| 2026-04-25 09:51 | 54.84458 | -3.08766 | 33207 ft | 437 kts | 170° |
| 2026-04-25 09:51 | 54.78829 | -3.06866 | 33206 ft | 437 kts | 170° |
| 2026-04-25 09:52 | 54.72808 | -3.04839 | 33207 ft | 437 kts | 170° |
| 2026-04-25 09:52 | 54.66833 | -3.02833 | 33204 ft | 436 kts | 170° |
| 2026-04-25 09:53 | 54.60850 | -3.00830 | 33205 ft | 437 kts | 170° |
| 2026-04-25 09:53 | 54.54902 | -2.98846 | 33213 ft | 437 kts | 171° |
| 2026-04-25 09:54 | 54.48882 | -2.96844 | 33211 ft | 437 kts | 171° |
| 2026-04-25 09:54 | 54.42913 | -2.94864 | 33220 ft | 438 kts | 171° |
| 2026-04-25 09:55 | 54.36945 | -2.92889 | 33203 ft | 435 kts | 171° |
| 2026-04-25 09:55 | 54.30993 | -2.90927 | 33203 ft | 436 kts | 171° |
| 2026-04-25 09:56 | 54.25038 | -2.88969 | 33207 ft | 436 kts | 171° |
| 2026-04-25 09:56 | 54.19059 | -2.87009 | 33203 ft | 436 kts | 171° |
| 2026-04-25 09:57 | 54.13111 | -2.85064 | 33206 ft | 436 kts | 171° |
| 2026-04-25 09:57 | 54.07137 | -2.83117 | 33207 ft | 436 kts | 171° |
| 2026-04-25 09:58 | 54.01216 | -2.81077 | 33207 ft | 437 kts | 167° |
| 2026-04-25 09:58 | 53.95500 | -2.77491 | 33208 ft | 439 kts | 159° |
| 2026-04-25 09:59 | 53.90075 | -2.73522 | 33210 ft | 439 kts | 159° |
| 2026-04-25 09:59 | 53.85088 | -2.69913 | 33211 ft | 439 kts | 159° |
| 2026-04-25 10:00 | 53.79646 | -2.66000 | 33210 ft | 440 kts | 159° |
| 2026-04-25 10:00 | 53.73936 | -2.61910 | 33208 ft | 440 kts | 159° |
| 2026-04-25 10:01 | 53.68272 | -2.57866 | 33210 ft | 439 kts | 159° |
| 2026-04-25 10:01 | 53.63698 | -2.54607 | 33214 ft | 440 kts | 159° |
| 2026-04-25 10:02 | 53.58086 | -2.50620 | 33207 ft | 440 kts | 159° |
| 2026-04-25 10:02 | 53.52428 | -2.46609 | 33209 ft | 440 kts | 159° |
| 2026-04-25 10:03 | 53.46768 | -2.42610 | 33207 ft | 441 kts | 159° |
| 2026-04-25 10:03 | 53.41239 | -2.38713 | 33214 ft | 442 kts | 159° |
| 2026-04-25 10:04 | 53.35554 | -2.34718 | 33220 ft | 442 kts | 160° |
| 2026-04-25 10:04 | 53.29862 | -2.30730 | 33218 ft | 443 kts | 160° |
| 2026-04-25 10:05 | 53.24192 | -2.26769 | 33221 ft | 443 kts | 160° |
| 2026-04-25 10:05 | 53.18528 | -2.22823 | 33216 ft | 443 kts | 160° |
| 2026-04-25 10:06 | 53.12986 | -2.18208 | 33216 ft | 447 kts | 149° |
| 2026-04-25 10:06 | 53.08225 | -2.12502 | 33213 ft | 448 kts | 146° |
| 2026-04-25 10:07 | 53.03208 | -2.06355 | 33211 ft | 448 kts | 146° |
| 2026-04-25 10:07 | 52.98192 | -2.00262 | 33204 ft | 448 kts | 146° |
| 2026-04-25 10:08 | 52.93132 | -1.94142 | 33215 ft | 448 kts | 146° |
| 2026-04-25 10:08 | 52.88102 | -1.88078 | 33211 ft | 449 kts | 146° |
| 2026-04-25 10:09 | 52.83530 | -1.82580 | 33212 ft | 449 kts | 146° |
| 2026-04-25 10:09 | 52.81003 | -1.79546 | 32939 ft | 448 kts | 146° |
| 2026-04-25 10:09 | 52.78511 | -1.76560 | 32260 ft | 449 kts | 146° |
| 2026-04-25 10:10 | 52.75970 | -1.73526 | 31293 ft | 454 kts | 147° |
| 2026-04-25 10:10 | 52.74213 | -1.71621 | 30593 ft | 456 kts | 151° |
| 2026-04-25 10:10 | 52.71379 | -1.69077 | 29343 ft | 462 kts | 154° |
| 2026-04-25 10:10 | 52.68560 | -1.66669 | 28469 ft | 460 kts | 154° |
| 2026-04-25 10:11 | 52.65743 | -1.64257 | 27907 ft | 451 kts | 154° |
| 2026-04-25 10:11 | 52.63061 | -1.61957 | 27598 ft | 438 kts | 154° |
| 2026-04-25 10:11 | 52.60329 | -1.59616 | 27055 ft | 430 kts | 154° |
| 2026-04-25 10:11 | 52.57682 | -1.57351 | 26468 ft | 425 kts | 154° |
| 2026-04-25 10:12 | 52.55074 | -1.55121 | 25909 ft | 419 kts | 154° |
| 2026-04-25 10:12 | 52.52483 | -1.52909 | 25335 ft | 415 kts | 154° |
| 2026-04-25 10:12 | 52.47397 | -1.48573 | 24244 ft | 407 kts | 154° |
| 2026-04-25 10:13 | 52.44887 | -1.46437 | 23608 ft | 404 kts | 154° |
| 2026-04-25 10:13 | 52.42433 | -1.44351 | 23084 ft | 398 kts | 154° |
| 2026-04-25 10:13 | 52.39987 | -1.42275 | 22514 ft | 393 kts | 154° |
| 2026-04-25 10:13 | 52.37564 | -1.40221 | 21968 ft | 388 kts | 154° |
| 2026-04-25 10:14 | 52.35201 | -1.38222 | 21432 ft | 384 kts | 154° |
| 2026-04-25 10:14 | 52.32833 | -1.36221 | 20888 ft | 380 kts | 154° |
| 2026-04-25 10:14 | 52.30535 | -1.34279 | 20430 ft | 376 kts | 154° |
| 2026-04-25 10:14 | 52.28216 | -1.32295 | 20230 ft | 385 kts | 153° |
| 2026-04-25 10:15 | 52.25881 | -1.30117 | 20110 ft | 386 kts | 151° |
| 2026-04-25 10:15 | 52.23555 | -1.27877 | 19652 ft | 387 kts | 150° |
| 2026-04-25 10:15 | 52.21227 | -1.25637 | 18860 ft | 392 kts | 150° |
| 2026-04-25 10:15 | 52.18892 | -1.23413 | 18087 ft | 394 kts | 151° |
| 2026-04-25 10:16 | 52.16538 | -1.21188 | 17662 ft | 384 kts | 151° |
| 2026-04-25 10:16 | 52.14263 | -1.19045 | 17445 ft | 370 kts | 151° |
| 2026-04-25 10:16 | 52.12082 | -1.16997 | 17170 ft | 367 kts | 151° |
| 2026-04-25 10:16 | 52.09821 | -1.14878 | 16783 ft | 369 kts | 151° |
| 2026-04-25 10:17 | 52.07602 | -1.12803 | 16409 ft | 364 kts | 151° |
| 2026-04-25 10:17 | 52.05416 | -1.10762 | 16042 ft | 362 kts | 151° |
| 2026-04-25 10:17 | 52.03250 | -1.08701 | 15721 ft | 358 kts | 146° |
| 2026-04-25 10:17 | 52.01559 | -1.06140 | 15594 ft | 347 kts | 128° |
| 2026-04-25 10:18 | 52.00504 | -1.02965 | 15476 ft | 335 kts | 109° |
| 2026-04-25 10:18 | 52.00124 | -0.99305 | 15332 ft | 324 kts | 90° |
| 2026-04-25 10:18 | 52.00329 | -0.95679 | 14986 ft | 320 kts | 84° |
| 2026-04-25 10:18 | 52.00594 | -0.92161 | 14585 ft | 318 kts | 84° |
| 2026-04-25 10:19 | 52.00860 | -0.88601 | 14242 ft | 315 kts | 84° |
| 2026-04-25 10:19 | 52.01105 | -0.85263 | 14048 ft | 307 kts | 84° |
| 2026-04-25 10:19 | 52.01354 | -0.81825 | 13839 ft | 309 kts | 84° |
| 2026-04-25 10:19 | 52.01601 | -0.78351 | 13642 ft | 309 kts | 84° |
| 2026-04-25 10:20 | 52.01963 | -0.74920 | 13434 ft | 307 kts | 72° |
| 2026-04-25 10:20 | 52.02917 | -0.71857 | 13232 ft | 307 kts | 53° |
| 2026-04-25 10:20 | 52.04364 | -0.69319 | 13044 ft | 307 kts | 45° |
| 2026-04-25 10:20 | 52.05868 | -0.66856 | 12832 ft | 305 kts | 45° |
| 2026-04-25 10:21 | 52.07358 | -0.64400 | 12634 ft | 304 kts | 45° |
| 2026-04-25 10:21 | 52.08830 | -0.61964 | 12437 ft | 303 kts | 45° |
| 2026-04-25 10:21 | 52.10306 | -0.59513 | 12245 ft | 302 kts | 45° |
| 2026-04-25 10:21 | 52.11771 | -0.57076 | 12042 ft | 300 kts | 45° |
| 2026-04-25 10:22 | 52.13229 | -0.54646 | 11845 ft | 300 kts | 45° |
| 2026-04-25 10:22 | 52.14682 | -0.52223 | 11653 ft | 298 kts | 45° |
| 2026-04-25 10:22 | 52.16131 | -0.49805 | 11459 ft | 298 kts | 45° |
| 2026-04-25 10:22 | 52.17539 | -0.47454 | 11373 ft | 288 kts | 45° |
| 2026-04-25 10:23 | 52.18914 | -0.45158 | 11282 ft | 277 kts | 45° |
| 2026-04-25 10:23 | 52.20234 | -0.42947 | 11162 ft | 267 kts | 45° |
| 2026-04-25 10:23 | 52.21685 | -0.41112 | 10834 ft | 264 kts | 22° |
| 2026-04-25 10:23 | 52.23446 | -0.40559 | 10583 ft | 256 kts | 358° |
| 2026-04-25 10:24 | 52.25207 | -0.40625 | 10430 ft | 254 kts | 358° |
| 2026-04-25 10:24 | 52.26990 | -0.40686 | 10281 ft | 255 kts | 358° |
| 2026-04-25 10:24 | 52.28757 | -0.40740 | 10129 ft | 253 kts | 358° |
| 2026-04-25 10:24 | 52.30484 | -0.40789 | 9967 ft | 252 kts | 358° |
| 2026-04-25 10:25 | 52.32243 | -0.40836 | 9798 ft | 251 kts | 358° |
| 2026-04-25 10:25 | 52.33992 | -0.40806 | 9588 ft | 251 kts | 8° |
| 2026-04-25 10:25 | 52.35576 | -0.39706 | 9394 ft | 251 kts | 38° |
| 2026-04-25 10:25 | 52.36632 | -0.37443 | 9228 ft | 255 kts | 68° |
| 2026-04-25 10:26 | 52.36889 | -0.34595 | 9074 ft | 256 kts | 94° |
| 2026-04-25 10:26 | 52.36494 | -0.31768 | 8906 ft | 256 kts | 113° |
| 2026-04-25 10:26 | 52.35563 | -0.29292 | 8745 ft | 256 kts | 130° |
| 2026-04-25 10:26 | 52.34292 | -0.27280 | 8572 ft | 255 kts | 141° |
| 2026-04-25 10:27 | 52.32857 | -0.25588 | 8421 ft | 253 kts | 147° |
| 2026-04-25 10:27 | 52.31364 | -0.24069 | 8261 ft | 252 kts | 151° |
| 2026-04-25 10:27 | 52.29753 | -0.22973 | 8212 ft | 251 kts | 165° |
| 2026-04-25 10:27 | 52.28039 | -0.22439 | 8214 ft | 252 kts | 171° |
| 2026-04-25 10:28 | 52.26303 | -0.21982 | 8217 ft | 252 kts | 171° |
| 2026-04-25 10:28 | 52.24595 | -0.21504 | 8215 ft | 251 kts | 170° |
| 2026-04-25 10:28 | 52.22875 | -0.21011 | 8217 ft | 251 kts | 170° |
| 2026-04-25 10:28 | 52.21154 | -0.20513 | 8210 ft | 250 kts | 170° |
| 2026-04-25 10:29 | 52.19430 | -0.20056 | 8227 ft | 251 kts | 175° |
| 2026-04-25 10:29 | 52.17677 | -0.19974 | 8096 ft | 252 kts | 180° |
| 2026-04-25 10:29 | 52.15918 | -0.19955 | 7809 ft | 253 kts | 179° |
| 2026-04-25 10:29 | 52.14158 | -0.19928 | 7504 ft | 253 kts | 179° |
| 2026-04-25 10:30 | 52.12404 | -0.19895 | 7196 ft | 251 kts | 179° |
| 2026-04-25 10:30 | 52.11248 | -0.19939 | 6986 ft | 251 kts | 188° |
| 2026-04-25 10:30 | 52.09215 | -0.21646 | 6586 ft | 250 kts | 227° |
| 2026-04-25 10:30 | 52.08111 | -0.23831 | 6261 ft | 250 kts | 232° |
| 2026-04-25 10:31 | 52.07079 | -0.26095 | 5984 ft | 249 kts | 233° |
| 2026-04-25 10:31 | 52.06014 | -0.28293 | 5716 ft | 247 kts | 221° |
| 2026-04-25 10:31 | 52.04533 | -0.29590 | 5534 ft | 240 kts | 190° |
| 2026-04-25 10:31 | 52.02937 | -0.29496 | 5410 ft | 224 kts | 164° |
| 2026-04-25 10:32 | 52.01490 | -0.28757 | 5270 ft | 219 kts | 153° |
| 2026-04-25 10:32 | 52.00341 | -0.27227 | 5057 ft | 214 kts | 123° |
| 2026-04-25 10:32 | 51.99839 | -0.25021 | 4992 ft | 209 kts | 94° |
| 2026-04-25 10:32 | 51.99922 | -0.22681 | 4987 ft | 217 kts | 84° |
| 2026-04-25 10:33 | 52.00052 | -0.20262 | 4991 ft | 215 kts | 85° |
| 2026-04-25 10:33 | 52.00152 | -0.18209 | 4985 ft | 214 kts | 85° |
| 2026-04-25 10:33 | 52.00252 | -0.16098 | 4986 ft | 215 kts | 85° |
| 2026-04-25 10:33 | 52.00345 | -0.13699 | 4990 ft | 216 kts | 92° |
| 2026-04-25 10:34 | 51.99880 | -0.11425 | 4991 ft | 216 kts | 126° |
| 2026-04-25 10:34 | 51.98715 | -0.09944 | 4903 ft | 216 kts | 156° |
| 2026-04-25 10:34 | 51.97271 | -0.09273 | 4686 ft | 216 kts | 167° |
| 2026-04-25 10:34 | 51.95805 | -0.08849 | 4540 ft | 210 kts | 168° |
| 2026-04-25 10:35 | 51.94379 | -0.08415 | 4213 ft | 207 kts | 170° |
| 2026-04-25 10:35 | 51.93118 | -0.08721 | 3925 ft | 206 kts | 211° |
| 2026-04-25 10:35 | 51.92159 | -0.10412 | 3697 ft | 208 kts | 242° |
| 2026-04-25 10:35 | 51.91616 | -0.12625 | 3420 ft | 216 kts | 253° |
| 2026-04-25 10:36 | 51.91230 | -0.15009 | 3111 ft | 221 kts | 255° |
| 2026-04-25 10:36 | 51.90807 | -0.17429 | 2811 ft | 225 kts | 254° |
| 2026-04-25 10:36 | 51.90396 | -0.19841 | 2517 ft | 211 kts | 254° |
| 2026-04-25 10:36 | 51.90018 | -0.22040 | 2215 ft | 193 kts | 254° |
| 2026-04-25 10:37 | 51.89676 | -0.24019 | 1964 ft | 177 kts | 254° |
| 2026-04-25 10:37 | 51.89360 | -0.25847 | 1724 ft | 160 kts | 253° |
| 2026-04-25 10:37 | 51.89078 | -0.27488 | 1512 ft | 144 kts | 254° |
| 2026-04-25 10:37 | 51.88818 | -0.29012 | 1337 ft | 137 kts | 253° |
| 2026-04-25 10:38 | 51.88547 | -0.30515 | 1135 ft | 136 kts | 253° |
| 2026-04-25 10:38 | 51.88308 | -0.31951 | 970 ft | 130 kts | 252° |
| 2026-04-25 10:38 | 51.88067 | -0.33366 | 821 ft | 132 kts | 253° |
| 2026-04-25 10:38 | 51.87820 | -0.34801 | 641 ft | 131 kts | 252° |
| 2026-04-25 10:39 | 51.87580 | -0.36185 | 520 ft | 124 kts | 252° |
| 2026-04-25 10:39 | 51.87391 | -0.37261 | 521 ft | 58 kts | 256° |
| 2026-04-25 10:39 | 51.87335 | -0.37611 | 521 ft | 16 kts | 263° |
| 2026-04-25 10:39 | 51.87391 | -0.37683 | 522 ft | 12 kts | 21° |
| 2026-04-25 10:40 | 51.87461 | -0.37579 | 522 ft | 11 kts | 48° |
| 2026-04-25 10:40 | 51.87529 | -0.37480 | 522 ft | 15 kts | 30° |
| 2026-04-25 10:40 | 51.87630 | -0.37467 | 521 ft | 15 kts | 340° |
| 2026-04-25 10:40 | 51.87672 | -0.37501 | 522 ft | 8 kts | 326° |
| 2026-04-25 10:41 | 51.87711 | -0.37605 | 522 ft | 10 kts | 294° |
| 2026-04-25 10:41 | 51.87744 | -0.37720 | 522 ft | 13 kts | 295° |
| 2026-04-25 10:41 | 51.87773 | -0.37799 | 522 ft | 7 kts | 323° |
| 2026-04-25 10:41 | 51.87801 | -0.37796 | 522 ft | 3 kts | 17° |
| 2026-04-25 10:42 | 51.87819 | -0.37783 | 522 ft | 3 kts | 25° |
| 2026-04-25 10:42 | 51.87821 | -0.37782 | 522 ft | 0 kts | 25° |